Time;durP1;ratioP1;P1;durP2;ratioP2;P2;SDS_P1;SDS_P2;PMS_P1;PMS_P2;Temp;Humidity;BMP_temperature;BMP_pressure;BME280_temperature;BME280_humidity;BME280_pressure;Samples;Min_cycle;Max_cycle;Signal;HPM_P1;HPM_P2
2023/03/17 00:00:48;;;;;;;65.32;31.08;;;;;;;0.14;75.89;101267.81;5008953;28;20048;-69
2023/03/17 00:03:20;;;;;;;72.00;30.33;;;;;;;0.15;75.71;101277.47;5008318;28;20040;-69
2023/03/17 00:05:46;;;;;;;69.72;30.38;;;;;;;0.11;75.30;101275.84;5008542;28;20036;-69
2023/03/17 00:08:21;;;;;;;61.95;29.30;;;;;;;0.10;75.77;101281.16;5008380;28;20033;-69
2023/03/17 00:10:47;;;;;;;62.55;27.02;;;;;;;-0.02;75.68;101272.72;4990596;28;20133;-69
2023/03/17 00:13:13;;;;;;;60.47;27.33;;;;;;;0.05;76.28;101278.66;5008857;28;20112;-69
2023/03/17 00:15:39;;;;;;;65.05;27.73;;;;;;;-0.01;76.37;101276.19;5006631;28;20064;-69
2023/03/17 00:18:12;;;;;;;55.05;26.25;;;;;;;-0.01;76.79;101266.50;5008332;28;20030;-69
2023/03/17 00:20:38;;;;;;;59.80;25.70;;;;;;;0.01;76.16;101271.75;5006273;28;20121;-69
2023/03/17 00:23:03;;;;;;;60.33;29.02;;;;;;;-0.08;76.11;101258.81;5008314;28;20128;-69
2023/03/17 00:25:33;;;;;;;60.65;27.42;;;;;;;-0.03;75.91;101278.03;5008474;28;20030;-69
2023/03/17 00:28:02;;;;;;;64.07;27.73;;;;;;;-0.11;76.04;101264.19;5008148;28;20084;-69
2023/03/17 00:30:28;;;;;;;69.35;28.40;;;;;;;-0.17;76.67;101265.25;5008249;28;20021;-69
2023/03/17 00:32:56;;;;;;;73.53;30.00;;;;;;;-0.13;76.16;101284.44;5006237;28;20049;-69
2023/03/17 00:35:29;;;;;;;62.40;27.67;;;;;;;-0.21;76.21;101268.00;5007979;28;20032;-69
2023/03/17 00:37:56;;;;;;;63.38;28.58;;;;;;;-0.21;76.92;101270.63;5006434;28;20044;-69
2023/03/17 00:40:28;;;;;;;69.40;29.67;;;;;;;-0.29;76.85;101255.03;5007875;28;20037;-69
2023/03/17 00:42:54;;;;;;;67.75;31.77;;;;;;;-0.36;77.24;101263.16;5007866;28;20552;-63
2023/03/17 00:45:22;;;;;;;75.88;32.28;;;;;;;-0.33;77.44;101265.72;5007790;28;20486;-63
2023/03/17 00:47:50;;;;;;;69.78;29.92;;;;;;;-0.31;77.35;101271.81;5007408;28;20371;-63
2023/03/17 00:50:20;;;;;;;70.70;31.30;;;;;;;-0.33;77.28;101266.59;5008032;28;20065;-63
2023/03/17 00:52:47;;;;;;;88.65;36.17;;;;;;;-0.36;77.08;101268.44;5004955;28;20080;-62
2023/03/17 00:55:13;;;;;;;86.20;35.33;;;;;;;-0.41;76.46;101250.16;5007637;28;20026;-63
2023/03/17 00:57:39;;;;;;;83.18;34.75;;;;;;;-0.50;76.06;101249.53;5007699;28;20062;-62
2023/03/17 01:00:17;;;;;;;76.68;34.10;;;;;;;-0.43;76.56;101258.97;4989661;28;20408;-63
2023/03/17 01:02:43;;;;;;;85.07;35.03;;;;;;;-0.46;77.07;101254.66;5006895;28;20484;-63
2023/03/17 01:05:09;;;;;;;92.25;38.38;;;;;;;-0.50;77.00;101249.53;5007404;28;20100;-62
2023/03/17 01:07:36;;;;;;;87.32;38.78;;;;;;;-0.55;76.74;101256.72;5006859;28;20034;-62
2023/03/17 01:10:01;;;;;;;88.22;38.47;;;;;;;-0.52;76.17;101257.47;5008066;28;20030;-63
2023/03/17 01:12:28;;;;;;;98.50;38.25;;;;;;;-0.55;76.43;101251.44;5007118;28;20104;-62
2023/03/17 01:14:53;;;;;;;85.80;37.33;;;;;;;-0.59;76.55;101247.13;5007298;28;20065;-62
2023/03/17 01:17:19;;;;;;;92.63;39.80;;;;;;;-0.65;77.26;101239.41;5006640;28;20029;-62
2023/03/17 01:19:46;;;;;;;92.25;37.80;;;;;;;-0.64;77.41;101241.16;5006536;28;20030;-62
2023/03/17 01:22:12;;;;;;;95.63;37.80;;;;;;;-0.64;77.82;101246.41;5007096;28;20030;-63
2023/03/17 01:24:39;;;;;;;84.95;37.95;;;;;;;-0.66;77.71;101248.22;5006886;28;20690;-69
2023/03/17 01:27:05;;;;;;;79.57;36.70;;;;;;;-0.75;77.77;101232.66;5007165;28;20440;-69
2023/03/17 01:29:32;;;;;;;79.55;34.25;;;;;;;-0.69;77.36;101251.81;5004311;28;20028;-69
2023/03/17 01:31:58;;;;;;;89.90;36.05;;;;;;;-0.82;76.65;101236.38;5007206;28;20049;-69
2023/03/17 01:34:23;;;;;;;78.30;33.90;;;;;;;-0.76;77.17;101239.72;5006583;28;20060;-69
2023/03/17 01:36:49;;;;;;;77.00;32.88;;;;;;;-0.86;77.62;101227.72;5006898;28;20110;-62
2023/03/17 01:39:15;;;;;;;73.63;32.03;;;;;;;-0.89;77.60;101235.69;5006631;28;20104;-62
2023/03/17 01:41:41;;;;;;;76.55;31.67;;;;;;;-0.77;77.89;101251.13;5005467;28;20017;-62
2023/03/17 01:44:17;;;;;;;78.47;32.13;;;;;;;-0.78;78.16;101257.31;5006393;28;20468;-63
2023/03/17 01:46:44;;;;;;;76.78;31.13;;;;;;;-0.81;77.40;101269.72;5006177;28;20040;-63
2023/03/17 01:49:34;;;;;;;80.18;32.72;;;;;;;-0.98;76.94;101240.31;5006854;28;20471;-63
2023/03/17 01:52:13;;;;;;;76.38;30.83;;;;;;;-0.92;77.30;101262.09;5007049;28;20490;-62
2023/03/17 01:54:55;;;;;;;91.82;35.95;;;;;;;-0.95;77.50;101262.16;5006657;28;20552;-62
2023/03/17 01:57:28;;;;;;;95.47;38.03;;;;;;;-0.97;77.68;101258.69;5006408;28;20030;-63
2023/03/17 02:00:04;;;;;;;103.37;36.77;;;;;;;-1.01;78.27;101251.78;5006735;28;20479;-63
2023/03/17 02:02:33;;;;;;;87.78;34.97;;;;;;;-1.03;77.85;101248.31;5006633;28;20899;-62
2023/03/17 02:04:59;;;;;;;88.43;36.70;;;;;;;-1.03;78.65;101258.84;5004181;28;20042;-63
2023/03/17 02:07:26;;;;;;;94.22;39.03;;;;;;;-1.06;78.31;101252.81;5006825;28;20029;-62
2023/03/17 02:09:54;;;;;;;133.00;46.53;;;;;;;-1.09;78.33;101256.41;5006268;28;20101;-63
2023/03/17 02:12:22;;;;;;;129.02;46.40;;;;;;;-1.13;78.60;101256.53;5006276;28;20056;-62
2023/03/17 02:14:48;;;;;;;141.05;52.50;;;;;;;-1.13;77.93;101257.38;5006353;28;20049;-63
2023/03/17 02:17:14;;;;;;;141.45;53.92;;;;;;;-1.13;77.89;101267.03;5005139;28;20033;-62
2023/03/17 02:19:40;;;;;;;166.77;61.38;;;;;;;-1.14;77.91;101273.19;5005762;28;20034;-62
2023/03/17 02:22:07;;;;;;;170.80;60.00;;;;;;;-1.27;77.76;101250.72;5004294;28;20117;-62
2023/03/17 02:24:47;;;;;;;145.35;54.03;;;;;;;-1.29;78.28;101250.75;5006169;28;20037;-62
2023/03/17 02:27:18;;;;;;;146.05;50.53;;;;;;;-1.21;78.95;101269.00;5003033;28;20390;-69
2023/03/17 02:29:45;;;;;;;132.85;48.38;;;;;;;-1.21;78.61;101271.63;5005441;28;20036;-69
2023/03/17 02:32:13;;;;;;;142.25;50.35;;;;;;;-1.24;79.35;101283.09;5005319;28;20048;-69
2023/03/17 02:34:38;;;;;;;174.75;61.67;;;;;;;-1.37;79.10;101249.22;5018658;28;20053;-68
2023/03/17 02:37:06;;;;;;;173.80;59.97;;;;;;;-1.30;78.57;101269.22;5025593;28;20520;-68
2023/03/17 02:39:32;;;;;;;160.60;57.92;;;;;;;-1.39;77.50;101254.53;5021784;28;20026;-68
2023/03/17 02:41:58;;;;;;;166.93;60.15;;;;;;;-1.31;77.12;101273.63;5024689;28;20044;-68
2023/03/17 02:44:24;;;;;;;151.35;53.80;;;;;;;-1.37;77.80;101271.13;5025576;28;20021;-68
2023/03/17 02:46:49;;;;;;;148.02;54.42;;;;;;;-1.38;77.74;101273.81;5022587;28;20025;-68
2023/03/17 02:49:15;;;;;;;140.73;53.28;;;;;;;-1.38;78.25;101279.06;5024345;28;20345;-68
2023/03/17 02:51:41;;;;;;;129.40;47.13;;;;;;;-1.42;77.61;101280.06;5021424;28;20045;-68
2023/03/17 02:54:06;;;;;;;139.00;49.63;;;;;;;-1.52;76.60;101265.38;5024317;28;20049;-68
2023/03/17 02:56:32;;;;;;;138.90;50.65;;;;;;;-1.52;77.41;101279.38;5022893;28;20029;-68
2023/03/17 02:58:58;;;;;;;137.30;52.50;;;;;;;-1.48;77.93;101290.72;5025288;28;20132;-68
2023/03/17 03:01:25;;;;;;;145.15;50.53;;;;;;;-1.53;77.98;101293.44;5022857;28;20083;-68
2023/03/17 03:03:51;;;;;;;115.60;45.25;;;;;;;-1.54;77.96;101297.00;5009180;28;20083;-68
2023/03/17 03:06:17;;;;;;;123.35;45.08;;;;;;;-1.55;78.43;101289.13;5008407;28;20116;-68
2023/03/17 03:08:43;;;;;;;113.43;43.38;;;;;;;-1.65;78.31;101285.00;5022054;28;20116;-68
2023/03/17 03:11:08;;;;;;;97.75;38.97;;;;;;;-1.60;78.25;101291.88;5025664;28;20021;-68
2023/03/17 03:13:34;;;;;;;88.28;36.38;;;;;;;-1.58;77.68;101305.81;5019929;28;20022;-68
2023/03/17 03:15:59;;;;;;;94.97;36.33;;;;;;;-1.71;77.42;101279.88;5025178;28;20057;-68
2023/03/17 03:18:25;;;;;;;95.82;37.72;;;;;;;-1.61;77.83;101302.41;5022523;28;20032;-68
2023/03/17 03:20:50;;;;;;;100.07;40.95;;;;;;;-1.57;78.34;101301.44;4999478;28;20039;-68
2023/03/17 03:23:16;;;;;;;99.50;38.65;;;;;;;-1.58;78.37;101307.59;5025610;28;20127;-68
2023/03/17 03:25:41;;;;;;;95.45;38.75;;;;;;;-1.60;79.06;101312.91;5025021;28;20059;-68
2023/03/17 03:28:08;;;;;;;101.90;38.47;;;;;;;-1.63;78.98;101306.84;5023333;28;20040;-68
2023/03/17 03:30:35;;;;;;;90.38;36.65;;;;;;;-1.75;78.21;101288.69;5022597;28;20029;-68
2023/03/17 03:33:01;;;;;;;112.15;40.25;;;;;;;-1.72;77.79;101286.88;5015696;28;20033;-68
2023/03/17 03:35:28;;;;;;;114.93;42.42;;;;;;;-1.68;77.76;101296.41;5008549;28;20030;-68
2023/03/17 03:37:55;;;;;;;123.47;46.15;;;;;;;-1.65;78.57;101306.88;5009382;28;20045;-68
2023/03/17 03:40:21;;;;;;;126.57;46.65;;;;;;;-1.65;78.26;101311.28;5008834;28;20072;-68
2023/03/17 03:42:46;;;;;;;126.70;45.47;;;;;;;-1.65;79.24;101324.44;5009294;28;20054;-68
2023/03/17 03:45:11;;;;;;;112.78;40.65;;;;;;;-1.67;78.57;101310.44;5008446;28;20025;-68
2023/03/17 03:47:37;;;;;;;118.50;44.83;;;;;;;-1.69;78.36;101309.59;5008914;28;20085;-68
2023/03/17 03:50:03;;;;;;;139.68;49.03;;;;;;;-1.71;78.54;101295.63;5008634;28;20040;-68
2023/03/17 03:52:28;;;;;;;152.68;55.63;;;;;;;-1.70;78.86;101300.00;5008901;28;20032;-68
2023/03/17 03:54:54;;;;;;;128.43;47.05;;;;;;;-1.70;79.68;101300.88;5008495;28;20030;-62
2023/03/17 03:57:19;;;;;;;128.80;45.00;;;;;;;-1.68;79.75;101303.47;5008598;28;20030;-62
2023/03/17 03:59:45;;;;;;;108.18;42.75;;;;;;;-1.69;79.33;101309.59;5008357;28;20029;-61
2023/03/17 04:02:11;;;;;;;116.97;42.47;;;;;;;-1.83;77.87;101278.38;5008988;28;20018;-61
2023/03/17 04:04:36;;;;;;;107.03;42.45;;;;;;;-1.80;77.82;101282.69;5008466;28;20033;-62
2023/03/17 04:07:02;;;;;;;114.40;43.03;;;;;;;-1.78;78.41;101299.31;5008583;28;20109;-61
2023/03/17 04:09:27;;;;;;;104.90;42.55;;;;;;;-1.80;78.55;101287.94;5008670;28;20038;-62
2023/03/17 04:11:53;;;;;;;113.10;43.10;;;;;;;-1.82;79.33;101301.13;5008512;28;20369;-62
2023/03/17 04:14:18;;;;;;;97.35;38.80;;;;;;;-1.91;78.73;101287.34;5008437;28;20025;-62
2023/03/17 04:16:44;;;;;;;98.13;39.05;;;;;;;-1.91;78.83;101292.59;5007933;28;20026;-62
2023/03/17 04:19:10;;;;;;;107.20;41.45;;;;;;;-1.89;78.12;101293.41;5008377;28;20105;-62
2023/03/17 04:21:36;;;;;;;106.43;38.80;;;;;;;-1.92;77.98;101285.56;5007886;28;20380;-62
2023/03/17 04:24:04;;;;;;;109.85;38.80;;;;;;;-1.98;78.60;101283.97;5008424;28;20046;-62
2023/03/17 04:26:30;;;;;;;89.55;36.63;;;;;;;-1.94;78.75;101293.50;5007704;28;20384;-62
2023/03/17 04:28:59;;;;;;;92.72;37.92;;;;;;;-1.94;79.05;101295.28;5004222;28;20025;-62
2023/03/17 04:31:25;;;;;;;94.32;35.30;;;;;;;-2.01;78.72;101291.91;4990172;28;20037;-62
2023/03/17 04:33:51;;;;;;;94.25;35.83;;;;;;;-1.98;78.21;101298.84;5006367;28;20049;-62
2023/03/17 04:36:19;;;;;;;94.65;38.72;;;;;;;-2.02;78.10;101303.31;5027931;28;20044;-62
2023/03/17 04:38:45;;;;;;;105.65;37.53;;;;;;;-2.03;78.61;101301.59;5001430;28;20022;-62
2023/03/17 04:41:14;;;;;;;102.63;39.45;;;;;;;-2.18;78.95;101285.28;4994615;28;20048;-62
2023/03/17 04:43:40;;;;;;;96.22;38.83;;;;;;;-2.03;78.92;101305.97;5024488;28;20590;-62
2023/03/17 04:46:09;;;;;;;96.35;37.10;;;;;;;-2.18;78.29;101282.63;5033422;28;20071;-62
2023/03/17 04:48:35;;;;;;;112.13;41.90;;;;;;;-2.11;78.19;101300.88;5027124;28;20387;-62
2023/03/17 04:51:01;;;;;;;113.90;45.40;;;;;;;-2.22;78.44;101283.63;5011268;28;20025;-62
2023/03/17 04:53:27;;;;;;;110.35;44.00;;;;;;;-2.26;78.70;101279.31;5037429;28;20084;-62
2023/03/17 04:55:53;;;;;;;120.32;44.72;;;;;;;-2.13;79.07;101300.03;5027558;28;20122;-62
2023/03/17 04:58:19;;;;;;;100.20;40.50;;;;;;;-2.23;79.00;101292.41;5031978;28;20053;-63
2023/03/17 05:00:45;;;;;;;104.40;40.63;;;;;;;-2.18;79.00;101295.78;5028524;28;20021;-63
2023/03/17 05:03:11;;;;;;;100.28;38.50;;;;;;;-2.39;79.32;101270.81;5025265;28;20383;-62
2023/03/17 05:05:39;;;;;;;86.35;35.20;;;;;;;-2.24;79.40;101307.28;5033571;28;20032;-63
2023/03/17 05:08:05;;;;;;;84.47;30.73;;;;;;;-2.24;78.86;101307.28;5026587;28;20528;-62
2023/03/17 05:10:30;;;;;;;87.55;35.38;;;;;;;-2.35;78.88;101288.25;5020359;28;20037;-62
2023/03/17 05:12:56;;;;;;;93.40;36.38;;;;;;;-2.25;79.00;101302.94;5023185;28;20045;-62
2023/03/17 05:15:22;;;;;;;85.22;35.10;;;;;;;-2.17;79.63;101315.94;5023903;28;20185;-62
2023/03/17 05:17:48;;;;;;;86.80;34.30;;;;;;;-2.11;80.33;101329.78;5003536;28;20045;-62
2023/03/17 05:20:14;;;;;;;85.10;33.45;;;;;;;-2.21;80.87;101307.22;5020344;28;20035;-62
2023/03/17 05:22:40;;;;;;;100.78;37.45;;;;;;;-2.13;80.68;101315.81;5016681;28;20387;-62
2023/03/17 05:25:06;;;;;;;113.57;41.55;;;;;;;-2.05;81.21;101323.53;5024157;28;20041;-61
2023/03/17 05:27:31;;;;;;;113.50;44.08;;;;;;;-2.00;81.60;101326.94;5025384;28;20033;-62
2023/03/17 05:29:57;;;;;;;107.35;40.42;;;;;;;-1.96;81.72;101336.50;5023156;28;20067;-62
2023/03/17 05:32:23;;;;;;;107.78;41.15;;;;;;;-1.94;82.37;101337.34;5024403;28;20033;-62
2023/03/17 05:34:49;;;;;;;101.47;40.97;;;;;;;-1.98;82.63;101318.13;5025641;28;20444;-62
2023/03/17 05:37:14;;;;;;;97.53;39.55;;;;;;;-1.86;82.97;101335.41;5026560;28;20155;-61
2023/03/17 05:39:40;;;;;;;102.88;39.67;;;;;;;-1.80;82.40;101343.16;5001792;28;20021;-61
2023/03/17 05:42:07;;;;;;;90.97;36.25;;;;;;;-1.87;82.53;101328.41;5024854;28;20029;-61
2023/03/17 05:44:33;;;;;;;98.10;38.38;;;;;;;-1.75;82.32;101344.78;5024073;28;20043;-61
2023/03/17 05:46:59;;;;;;;102.10;37.53;;;;;;;-1.68;83.30;101350.78;5025940;28;20083;-62
2023/03/17 05:49:26;;;;;;;87.18;36.70;;;;;;;-1.75;83.92;101334.25;5018468;28;20057;-62
2023/03/17 05:51:51;;;;;;;87.47;36.83;;;;;;;-1.57;84.26;101349.66;5024704;28;20030;-62
2023/03/17 05:54:17;;;;;;;102.78;38.03;;;;;;;-1.57;84.00;101343.53;5016850;28;20036;-62
2023/03/17 05:56:43;;;;;;;84.78;34.20;;;;;;;-1.43;84.28;101349.31;5020150;28;20064;-62
2023/03/17 05:59:09;;;;;;;84.57;33.92;;;;;;;-1.34;84.88;101357.88;5020736;28;20476;-62
2023/03/17 06:01:34;;;;;;;80.10;31.60;;;;;;;-1.24;84.69;101358.53;5025522;28;20029;-62
2023/03/17 06:04:00;;;;;;;84.28;32.25;;;;;;;-1.13;84.49;101364.44;5025329;28;20025;-62
2023/03/17 06:06:26;;;;;;;76.25;32.47;;;;;;;-1.11;84.31;101357.34;5025784;28;20021;-62
2023/03/17 06:08:52;;;;;;;72.78;31.33;;;;;;;-1.06;84.18;101350.22;5025499;28;20387;-62
2023/03/17 06:11:19;;;;;;;70.65;30.30;;;;;;;-0.97;84.34;101356.09;5025461;28;20044;-62
2023/03/17 06:13:45;;;;;;;76.15;30.70;;;;;;;-0.86;83.93;101348.81;5025456;28;20367;-62
2023/03/17 06:16:11;;;;;;;71.43;31.90;;;;;;;-0.73;83.60;101358.16;5024725;28;20667;-62
2023/03/17 06:18:37;;;;;;;71.30;28.85;;;;;;;-0.58;83.39;101367.44;5018951;28;20025;-62
2023/03/17 06:21:02;;;;;;;77.72;30.75;;;;;;;-0.46;83.08;101370.59;5015696;28;20033;-62
2023/03/17 06:23:28;;;;;;;71.13;27.70;;;;;;;-0.29;83.16;101380.69;5008853;28;20030;-62
2023/03/17 06:25:53;;;;;;;75.85;27.35;;;;;;;-0.10;82.70;101382.78;5023468;28;20714;-62
2023/03/17 06:28:18;;;;;;;72.28;27.90;;;;;;;0.05;82.24;101365.66;5020619;28;20037;-62
2023/03/17 06:30:44;;;;;;;58.88;27.15;;;;;;;0.27;81.46;101364.16;5017660;28;20467;-62
2023/03/17 06:33:10;;;;;;;46.38;21.73;;;;;;;0.47;80.65;101361.78;5006193;28;20058;-62
2023/03/17 06:35:36;;;;;;;39.55;19.40;;;;;;;0.60;79.37;101349.94;5024942;28;20104;-62
2023/03/17 06:38:02;;;;;;;29.33;14.20;;;;;;;0.89;77.19;101351.66;5019482;28;20082;-61
2023/03/17 06:40:28;;;;;;;26.45;13.35;;;;;;;1.18;75.75;101355.09;5016193;28;20109;-63
2023/03/17 06:42:53;;;;;;;23.80;12.38;;;;;;;1.40;74.23;101347.28;5015172;28;20030;-62
2023/03/17 06:45:19;;;;;;;23.35;12.20;;;;;;;1.61;72.68;101350.06;5025435;28;20052;-62
2023/03/17 06:47:44;;;;;;;28.30;11.63;;;;;;;1.90;71.42;101360.47;5025284;28;20116;-62
2023/03/17 06:50:11;;;;;;;23.92;11.63;;;;;;;2.05;70.00;101338.75;5025416;28;20392;-62
2023/03/17 06:52:37;;;;;;;25.38;11.57;;;;;;;2.48;68.81;101366.28;5025175;28;20033;-63
2023/03/17 06:55:05;;;;;;;19.80;11.65;;;;;;;2.74;68.25;101368.78;5023325;28;20025;-69
2023/03/17 06:57:31;;;;;;;21.83;10.35;;;;;;;2.95;67.08;101346.72;5025137;28;20050;-62
2023/03/17 06:59:56;;;;;;;19.55;9.90;;;;;;;3.31;65.74;101366.41;5002287;28;20036;-62
2023/03/17 07:02:22;;;;;;;19.10;9.90;;;;;;;3.57;64.80;101364.41;5025144;28;20029;-62
2023/03/17 07:04:48;;;;;;;21.48;10.43;;;;;;;3.86;62.79;101373.75;5010964;28;20038;-62
2023/03/17 07:07:13;;;;;;;24.73;10.93;;;;;;;4.14;61.36;101376.91;4993341;28;20021;-63
2023/03/17 07:09:39;;;;;;;19.98;11.00;;;;;;;4.38;60.81;101366.06;5025515;28;20032;-62
2023/03/17 07:12:05;;;;;;;27.88;10.27;;;;;;;4.65;59.72;101356.78;5020114;28;20041;-63
2023/03/17 07:14:35;;;;;;;18.02;10.05;;;;;;;5.00;58.12;101376.38;5019169;28;20028;-63
2023/03/17 07:17:05;;;;;;;17.35;8.93;;;;;;;5.31;56.74;101376.59;5023500;28;20196;-70
2023/03/17 07:19:31;;;;;;;18.83;10.23;;;;;;;5.58;55.88;101374.38;5017643;28;20026;-69
2023/03/17 07:21:57;;;;;;;20.67;9.68;;;;;;;5.89;54.09;101367.44;5024514;28;20041;-62
2023/03/17 07:24:24;;;;;;;22.63;8.98;;;;;;;6.25;53.46;101367.28;5010255;28;20037;-63
2023/03/17 07:26:50;;;;;;;16.42;8.75;;;;;;;6.62;51.78;101367.88;5016478;28;20033;-63
2023/03/17 07:29:16;;;;;;;14.65;8.23;;;;;;;6.83;51.93;101361.38;5028903;28;20021;-63
2023/03/17 07:31:43;;;;;;;15.57;7.70;;;;;;;7.16;50.68;101368.41;5025500;28;20372;-63
2023/03/17 07:34:09;;;;;;;15.77;6.95;;;;;;;7.53;48.79;101374.19;5008534;28;20541;-63
2023/03/17 07:36:35;;;;;;;12.05;7.10;;;;;;;7.80;48.37;101364.56;5008254;28;20018;-63
2023/03/17 07:39:01;;;;;;;13.27;6.45;;;;;;;8.24;46.91;101372.56;5007945;28;20056;-62
2023/03/17 07:41:27;;;;;;;15.15;7.65;;;;;;;8.55;47.12;101372.41;5008516;28;20057;-62
2023/03/17 07:43:53;;;;;;;15.50;6.78;;;;;;;8.91;45.84;101381.59;5008651;28;20021;-62
2023/03/17 07:46:19;;;;;;;16.33;7.40;;;;;;;9.09;45.21;101380.44;5008556;28;20053;-63
2023/03/17 07:48:45;;;;;;;11.93;6.55;;;;;;;9.47;44.85;101375.25;5007438;28;20025;-63
2023/03/17 07:51:16;;;;;;;12.77;6.18;;;;;;;9.90;42.73;101381.25;5008092;28;20033;-63
2023/03/17 07:53:41;;;;;;;10.57;6.82;;;;;;;10.57;41.92;101380.97;5008492;28;20080;-63
2023/03/17 07:56:08;;;;;;;14.95;7.43;;;;;;;10.96;41.20;101378.13;5006065;28;20415;-63
2023/03/17 07:58:34;;;;;;;10.93;6.35;;;;;;;11.75;40.56;101373.09;5008537;28;20046;-63
2023/03/17 08:01:00;;;;;;;10.23;5.97;;;;;;;12.32;38.84;101368.63;5007898;28;20033;-63
2023/03/17 08:03:26;;;;;;;12.25;6.28;;;;;;;13.33;36.45;101370.19;5008468;28;20026;-63
2023/03/17 08:05:54;;;;;;;11.35;6.45;;;;;;;14.22;35.29;101370.59;5008058;28;20032;-64
2023/03/17 08:08:21;;;;;;;8.98;6.10;;;;;;;15.05;33.56;101366.78;5006839;28;20040;-63
2023/03/17 08:10:47;;;;;;;14.95;5.45;;;;;;;15.79;31.69;101373.47;5006164;28;20430;-63
2023/03/17 08:13:13;;;;;;;8.85;5.55;;;;;;;16.31;30.53;101356.75;5004405;28;20026;-72
2023/03/17 08:15:39;;;;;;;9.52;4.95;;;;;;;16.94;29.50;101365.97;5006537;28;20033;-70
2023/03/17 08:18:05;;;;;;;11.07;4.97;;;;;;;17.28;28.46;101367.06;5007660;28;20499;-71
2023/03/17 08:20:32;;;;;;;8.40;5.18;;;;;;;18.00;27.32;101367.84;5005953;28;20044;-71
2023/03/17 08:22:57;;;;;;;8.20;4.85;;;;;;;18.26;27.27;101352.44;5006545;28;20037;-70
2023/03/17 08:25:23;;;;;;;10.30;5.20;;;;;;;18.93;26.35;101349.78;5008191;28;20042;-70
2023/03/17 08:27:49;;;;;;;10.00;4.97;;;;;;;19.25;25.26;101340.91;5007947;28;20071;-71
2023/03/17 08:30:15;;;;;;;9.10;4.95;;;;;;;19.48;25.76;101350.19;5008180;28;20029;-71
2023/03/17 08:32:41;;;;;;;7.75;4.40;;;;;;;19.96;25.00;101350.25;4987104;28;20077;-71
2023/03/17 08:35:11;;;;;;;8.23;4.35;;;;;;;20.23;24.34;101339.00;5023603;28;20458;-71
2023/03/17 08:37:37;;;;;;;7.32;4.18;;;;;;;20.96;23.39;101334.25;5016148;28;20026;-71
2023/03/17 08:40:04;;;;;;;8.10;4.05;;;;;;;21.40;22.70;101343.56;5025515;28;20051;-71
2023/03/17 08:42:30;;;;;;;10.13;4.65;;;;;;;21.84;22.33;101342.81;5020529;28;20038;-64
2023/03/17 08:44:55;;;;;;;5.63;3.40;;;;;;;21.65;21.87;101315.09;5015323;28;20086;-64
2023/03/17 08:47:22;;;;;;;6.80;3.28;;;;;;;22.47;21.61;101334.19;5027364;28;20036;-64
2023/03/17 08:49:48;;;;;;;6.90;3.28;;;;;;;21.86;21.34;101348.91;5024579;28;20038;-64
2023/03/17 08:52:15;;;;;;;4.88;2.70;;;;;;;21.79;20.52;101333.44;5023202;28;20037;-65
2023/03/17 08:54:41;;;;;;;5.13;2.83;;;;;;;22.23;20.29;101326.22;5027682;28;20515;-64
2023/03/17 08:57:06;;;;;;;5.78;3.33;;;;;;;22.18;20.60;101347.78;5027268;28;20090;-64
2023/03/17 08:59:32;;;;;;;7.28;3.85;;;;;;;22.38;20.42;101335.31;5027042;28;20033;-64
2023/03/17 09:01:58;;;;;;;8.32;3.15;;;;;;;22.42;20.40;101331.16;5026861;28;20479;-64
2023/03/17 09:04:24;;;;;;;5.60;3.33;;;;;;;22.20;20.61;101330.19;5027082;28;20033;-64
2023/03/17 09:06:50;;;;;;;8.27;3.90;;;;;;;22.38;20.45;101321.66;5001273;28;20025;-64
2023/03/17 09:09:16;;;;;;;4.70;3.22;;;;;;;22.56;20.52;101337.72;5027555;28;20497;-64
2023/03/17 09:11:42;;;;;;;6.32;3.35;;;;;;;22.86;19.85;101326.59;5009573;28;20128;-64
2023/03/17 09:14:08;;;;;;;8.60;3.63;;;;;;;23.34;19.48;101331.47;5024143;28;20033;-72
2023/03/17 09:16:34;;;;;;;8.68;4.07;;;;;;;23.19;19.67;101325.16;5022099;28;20041;-71
2023/03/17 09:18:59;;;;;;;7.68;3.67;;;;;;;23.00;20.09;101327.63;5023508;28;20018;-71
2023/03/17 09:21:26;;;;;;;7.93;3.90;;;;;;;23.54;19.65;101327.03;5022048;28;20041;-72
2023/03/17 09:23:51;;;;;;;7.32;3.65;;;;;;;23.54;19.50;101326.22;5008204;28;20029;-71
2023/03/17 09:26:18;;;;;;;9.90;3.90;;;;;;;23.36;19.43;101326.66;5021861;28;20120;-71
2023/03/17 09:28:43;;;;;;;8.38;3.58;;;;;;;23.61;19.51;101325.25;5015201;28;20026;-71
2023/03/17 09:31:11;;;;;;;6.90;4.10;;;;;;;23.57;19.18;101318.44;5023457;28;20553;-71
2023/03/17 09:33:41;;;;;;;7.47;3.67;;;;;;;23.66;19.54;101328.25;5023798;28;20052;-71
2023/03/17 09:36:08;;;;;;;8.35;3.15;;;;;;;24.89;18.49;101326.78;5023644;28;20152;-72
2023/03/17 09:38:33;;;;;;;6.88;3.58;;;;;;;24.84;18.26;101318.28;5021285;28;20753;-72
2023/03/17 09:41:06;;;;;;;7.35;3.45;;;;;;;24.37;18.83;101319.84;5025294;28;20091;-71
2023/03/17 09:43:41;;;;;;;6.78;3.05;;;;;;;24.42;19.05;101322.00;5025406;28;20064;-71
2023/03/17 09:46:16;;;;;;;5.80;3.13;;;;;;;24.88;18.46;101322.31;5018671;28;20029;-72
2023/03/17 09:49:02;;;;;;;7.63;3.15;;;;;;;25.96;17.34;101311.06;5022605;28;20029;-71
2023/03/17 09:51:31;;;;;;;4.07;2.90;;;;;;;25.94;17.04;101312.31;5023999;28;20399;-71
2023/03/17 09:54:01;;;;;;;7.63;3.40;;;;;;;24.40;18.15;101307.63;5023328;28;20025;-71
2023/03/17 09:56:30;;;;;;;4.40;3.13;;;;;;;24.54;17.88;101306.69;5023881;28;20142;-72
2023/03/17 09:59:00;;;;;;;5.60;3.35;;;;;;;25.21;17.51;101315.09;5021603;28;20037;-71
2023/03/17 10:01:26;;;;;;;5.57;3.50;;;;;;;24.58;18.03;101304.38;5025253;28;20549;-71
2023/03/17 10:03:52;;;;;;;5.85;3.30;;;;;;;25.09;17.67;101303.00;5019450;28;20060;-72
2023/03/17 10:06:27;;;;;;;6.40;3.67;;;;;;;24.82;17.92;101304.75;5021068;28;20034;-64
2023/03/17 10:09:15;;;;;;;5.28;3.75;;;;;;;24.58;18.13;101305.22;5023424;28;20025;-64
2023/03/17 10:11:47;;;;;;;5.57;3.63;;;;;;;25.20;17.91;101313.38;5025469;28;20045;-64
2023/03/17 10:14:40;;;;;;;6.15;3.53;;;;;;;25.16;17.78;101307.47;5007441;28;20623;-64
2023/03/17 10:17:19;;;;;;;5.15;3.13;;;;;;;27.03;16.29;101303.34;5014749;28;20764;-64
2023/03/17 10:19:58;;;;;;;6.40;3.55;;;;;;;26.29;16.85;101286.34;5015421;28;20030;-64
2023/03/17 10:22:24;;;;;;;7.00;3.65;;;;;;;24.42;18.15;101289.94;5023271;28;20578;-65
2023/03/17 10:24:58;;;;;;;5.95;4.15;;;;;;;22.40;19.75;101300.41;5024274;28;20101;-65
2023/03/17 10:27:25;;;;;;;5.63;3.13;;;;;;;21.59;20.01;101288.50;5023387;28;20039;-64
2023/03/17 10:29:50;;;;;;;7.03;4.30;;;;;;;20.28;21.56;101284.00;5024925;28;20033;-64
2023/03/17 10:32:16;;;;;;;7.40;4.28;;;;;;;19.59;22.61;101293.56;5024261;28;20036;-72
2023/03/17 10:34:42;;;;;;;5.85;3.70;;;;;;;18.46;24.02;101301.47;5020929;28;20133;-72
2023/03/17 10:37:16;;;;;;;5.90;3.83;;;;;;;17.54;24.43;101303.78;5024757;28;20034;-71
2023/03/17 10:39:56;;;;;;;7.57;4.30;;;;;;;17.02;25.02;101282.88;5020101;28;20037;-71
2023/03/17 10:42:27;;;;;;;6.47;4.00;;;;;;;16.28;25.83;101280.38;5024182;28;20037;-71
2023/03/17 10:45:12;;;;;;;5.20;3.97;;;;;;;15.68;27.23;101279.78;5023691;28;20399;-72
2023/03/17 10:47:39;;;;;;;8.60;4.07;;;;;;;15.23;27.42;101278.66;5023753;28;20040;-71
2023/03/17 10:50:20;;;;;;;7.47;3.95;;;;;;;14.90;27.94;101281.69;5024001;28;20033;-71
2023/03/17 10:52:51;;;;;;;7.78;4.78;;;;;;;14.76;27.59;101273.13;5017127;28;20541;-71
2023/03/17 10:55:20;;;;;;;8.27;4.28;;;;;;;14.38;28.90;101276.56;5024580;28;20021;-71
2023/03/17 10:58:08;;;;;;;10.27;4.32;;;;;;;13.99;29.82;101271.09;5025962;28;20686;-65
2023/03/17 11:00:37;;;;;;;9.40;3.88;;;;;;;13.74;30.08;101265.09;4999546;28;20041;-64
2023/03/17 11:03:33;;;;;;;7.10;3.78;;;;;;;13.38;30.17;101272.75;5016950;28;20029;-65
2023/03/17 11:06:03;;;;;;;6.40;4.13;;;;;;;13.36;30.22;101262.13;5024090;28;20083;-71
2023/03/17 11:08:34;;;;;;;6.90;4.25;;;;;;;13.55;30.38;101258.72;5024806;28;20060;-71
2023/03/17 11:11:08;;;;;;;7.32;4.32;;;;;;;13.14;31.34;101253.28;5021558;28;20422;-71
2023/03/17 11:13:34;;;;;;;;;;;;;;;12.94;31.15;101249.53;5025417;28;20021;-64
2023/03/17 11:16:23;;;;;;;8.40;4.35;;;;;;;12.80;31.69;101240.88;5024435;28;20374;-64